Time;durP1;ratioP1;P1;durP2;ratioP2;P2;SDS_P1;SDS_P2;PMS_P1;PMS_P2;Temp;Humidity;BMP_temperature;BMP_pressure;BME280_temperature;BME280_humidity;BME280_pressure;Samples;Min_cycle;Max_cycle;Signal;HPM_P1;HPM_P2
2021/07/18 00:01:05;;;;;;;10.30;6.97;;;22.40;78.00;;;;;;2240479;56;20994;-70
2021/07/18 00:03:32;;;;;;;9.15;6.65;;;22.40;78.00;;;;;;2458714;56;21628;-71
2021/07/18 00:05:59;;;;;;;8.15;6.47;;;22.30;77.80;;;;;;2238637;56;21482;-68
2021/07/18 00:08:25;;;;;;;8.20;6.12;;;22.30;77.70;;;;;;2243758;56;21474;-73
2021/07/18 00:10:52;;;;;;;10.07;5.43;;;22.20;77.70;;;;;;2226468;55;21492;-70
2021/07/18 00:13:19;;;;;;;7.43;5.53;;;22.20;77.80;;;;;;2237493;56;21017;-68
2021/07/18 00:15:47;;;;;;;8.05;5.55;;;22.20;77.80;;;;;;2239074;56;21436;-69
2021/07/18 00:18:13;;;;;;;8.85;6.32;;;22.20;77.80;;;;;;2402088;56;21514;-68
2021/07/18 00:20:39;;;;;;;7.80;5.75;;;22.10;77.70;;;;;;2239460;56;21027;-67
2021/07/18 00:23:06;;;;;;;7.60;5.10;;;22.10;77.60;;;;;;2230688;55;21046;-69
2021/07/18 00:25:32;;;;;;;8.90;5.85;;;22.10;77.60;;;;;;2237261;55;20981;-68
2021/07/18 00:28:00;;;;;;;7.68;5.10;;;22.00;77.60;;;;;;2239666;56;21093;-69
2021/07/18 00:30:26;;;;;;;8.48;5.82;;;22.00;77.40;;;;;;2239617;56;21030;-71
2021/07/18 00:32:53;;;;;;;9.15;5.87;;;21.90;77.40;;;;;;2240016;56;21058;-71
2021/07/18 00:35:19;;;;;;;7.93;5.43;;;21.90;77.50;;;;;;2288220;56;21007;-72
2021/07/18 00:37:46;;;;;;;7.70;5.50;;;21.90;77.50;;;;;;2239820;56;21002;-70
2021/07/18 00:40:13;;;;;;;6.55;5.18;;;21.80;77.40;;;;;;2240735;56;20986;-71
2021/07/18 00:42:39;;;;;;;9.52;5.35;;;21.80;77.40;;;;;;2458415;55;21034;-71
2021/07/18 00:45:07;;;;;;;6.30;5.15;;;21.80;77.50;;;;;;2221969;56;21587;-70
2021/07/18 00:47:34;;;;;;;7.25;5.15;;;21.70;77.30;;;;;;2238182;56;20967;-74
2021/07/18 00:50:05;;;;;;;6.15;5.03;;;21.70;77.40;;;;;;2240220;56;20942;-71
2021/07/18 00:52:31;;;;;;;7.07;5.12;;;21.70;77.30;;;;;;2237632;56;20955;-74
2021/07/18 00:54:57;;;;;;;7.07;5.18;;;21.60;77.40;;;;;;2242461;56;21023;-69
2021/07/18 00:57:24;;;;;;;8.90;4.72;;;21.60;77.40;;;;;;2236678;56;20942;-73
2021/07/18 00:59:51;;;;;;;8.57;5.53;;;21.50;77.20;;;;;;2239904;56;21351;-70
2021/07/18 01:02:17;;;;;;;6.80;5.18;;;21.50;77.30;;;;;;2222927;56;22054;-69
2021/07/18 01:04:44;;;;;;;7.40;5.10;;;21.50;77.20;;;;;;2457472;55;21389;-70
2021/07/18 01:07:10;;;;;;;6.87;4.80;;;21.40;77.20;;;;;;2446543;55;21790;-72
2021/07/18 01:09:39;;;;;;;8.00;4.37;;;21.40;77.30;;;;;;2235749;55;20958;-70
2021/07/18 01:12:05;;;;;;;8.23;4.97;;;21.40;77.10;;;;;;2260417;56;20985;-71
2021/07/18 01:14:34;;;;;;;6.87;4.20;;;21.30;77.30;;;;;;2241772;56;20947;-72
2021/07/18 01:17:01;;;;;;;7.93;5.37;;;21.30;77.10;;;;;;2238219;56;21011;-70
2021/07/18 01:19:28;;;;;;;9.15;4.97;;;21.20;77.00;;;;;;2239598;56;21023;-71
2021/07/18 01:21:59;;;;;;;6.32;5.43;;;21.20;77.00;;;;;;2215553;56;21089;-71
2021/07/18 01:24:26;;;;;;;7.53;5.47;;;21.20;76.80;;;;;;2221383;56;20962;-70
2021/07/18 01:26:53;;;;;;;6.75;4.90;;;21.10;77.00;;;;;;2395256;57;21447;-70
2021/07/18 01:29:19;;;;;;;7.62;4.97;;;21.10;77.10;;;;;;2430672;55;20973;-71
2021/07/18 01:31:47;;;;;;;6.53;4.82;;;21.00;77.10;;;;;;2236580;56;20965;-74
2021/07/18 01:34:13;;;;;;;8.40;5.40;;;21.00;77.00;;;;;;2239213;56;20950;-70
2021/07/18 01:36:39;;;;;;;7.57;5.32;;;21.00;77.10;;;;;;2239702;56;20954;-70
2021/07/18 01:39:07;;;;;;;8.30;6.15;;;20.90;77.00;;;;;;2459229;55;20946;-70
2021/07/18 01:41:33;;;;;;;7.22;5.40;;;20.90;77.00;;;;;;2238712;56;20987;-70
2021/07/18 01:44:00;;;;;;;7.05;5.10;;;20.90;77.00;;;;;;2239836;56;20955;-71
2021/07/18 01:46:29;;;;;;;7.37;5.57;;;20.80;77.00;;;;;;2220588;57;21010;-70
2021/07/18 01:48:55;;;;;;;8.88;5.53;;;20.80;77.00;;;;;;2238461;56;21086;-70
2021/07/18 01:51:25;;;;;;;8.05;5.65;;;20.80;77.10;;;;;;2239453;56;21010;-71
2021/07/18 01:53:55;;;;;;;7.97;5.85;;;20.70;77.00;;;;;;2241488;56;21015;-71
2021/07/18 01:56:22;;;;;;;8.15;5.97;;;20.70;76.80;;;;;;2240295;56;20971;-70
2021/07/18 01:58:50;;;;;;;7.62;5.62;;;20.70;76.90;;;;;;2236860;56;20966;-70
2021/07/18 02:01:22;;;;;;;7.97;5.37;;;20.60;77.00;;;;;;2253673;56;21010;-70
2021/07/18 02:03:49;;;;;;;10.95;5.37;;;20.60;77.00;;;;;;2463790;56;21479;-70
2021/07/18 02:06:15;;;;;;;8.15;5.00;;;20.50;76.90;;;;;;2239471;56;20950;-72
2021/07/18 02:08:41;;;;;;;7.43;5.32;;;20.50;77.10;;;;;;2239689;56;21062;-72
2021/07/18 02:11:08;;;;;;;8.27;5.65;;;20.50;77.10;;;;;;2239358;56;20958;-71
2021/07/18 02:13:34;;;;;;;7.57;4.87;;;20.40;77.00;;;;;;2241269;56;20950;-74
2021/07/18 02:16:02;;;;;;;9.90;5.05;;;20.40;77.10;;;;;;2238461;56;20954;-70
2021/07/18 02:18:29;;;;;;;7.10;5.12;;;20.40;77.30;;;;;;2238667;56;20962;-70
2021/07/18 02:20:55;;;;;;;9.20;5.35;;;20.40;77.50;;;;;;2238826;56;20969;-74
2021/07/18 02:23:22;;;;;;;9.02;5.85;;;20.30;77.60;;;;;;2458608;55;21728;-71
2021/07/18 02:25:49;;;;;;;7.62;5.75;;;20.30;77.80;;;;;;2238511;56;20982;-74
2021/07/18 02:28:16;;;;;;;10.05;6.80;;;20.30;78.10;;;;;;2424773;56;20994;-69
2021/07/18 02:30:42;;;;;;;8.18;6.03;;;20.30;78.30;;;;;;2237097;56;21046;-70
2021/07/18 02:33:09;;;;;;;7.72;5.87;;;20.30;78.50;;;;;;2239771;56;20970;-70
2021/07/18 02:35:38;;;;;;;14.25;8.05;;;20.30;78.70;;;;;;2242904;56;20978;-73
2021/07/18 02:38:04;;;;;;;9.77;7.37;;;20.30;79.00;;;;;;2460999;55;20954;-72
2021/07/18 02:40:30;;;;;;;11.05;7.78;;;20.30;79.20;;;;;;2238464;56;20975;-70
2021/07/18 02:42:56;;;;;;;11.98;7.50;;;20.40;79.60;;;;;;2238800;56;20958;-71
2021/07/18 02:45:23;;;;;;;10.77;7.28;;;20.40;79.70;;;;;;2244583;56;21071;-72
2021/07/18 02:47:50;;;;;;;10.13;7.47;;;20.40;79.80;;;;;;2235951;56;21026;-69
2021/07/18 02:50:29;;;;;;;11.27;7.53;;;20.40;79.90;;;;;;2242006;56;21019;-69
2021/07/18 02:52:55;;;;;;;9.30;7.15;;;20.50;79.60;;;;;;2236924;56;21482;-71
2021/07/18 02:55:22;;;;;;;12.45;7.68;;;20.50;80.00;;;;;;2241093;56;20954;-71
2021/07/18 02:57:50;;;;;;;9.25;6.28;;;20.50;79.90;;;;;;2240594;56;21015;-68
2021/07/18 03:00:21;;;;;;;9.27;6.70;;;20.50;79.60;;;;;;2237185;56;21034;-72
2021/07/18 03:02:48;;;;;;;9.68;7.35;;;20.50;79.40;;;;;;2242166;56;21030;-69
2021/07/18 03:05:14;;;;;;;9.27;6.40;;;20.60;79.20;;;;;;2240732;55;20978;-70
2021/07/18 03:07:41;;;;;;;7.70;5.95;;;20.50;79.00;;;;;;2235463;56;21029;-70
2021/07/18 03:10:08;;;;;;;9.05;5.93;;;20.50;78.80;;;;;;2239163;56;21446;-69
2021/07/18 03:12:38;;;;;;;7.37;5.25;;;20.50;78.70;;;;;;2239778;56;20967;-69
2021/07/18 03:15:06;;;;;;;7.45;5.53;;;20.50;78.40;;;;;;2434163;56;21503;-69
2021/07/18 03:17:32;;;;;;;6.95;4.90;;;20.50;78.30;;;;;;2242785;56;21023;-70
2021/07/18 03:19:59;;;;;;;11.57;5.75;;;20.50;78.30;;;;;;2238618;56;20994;-70
2021/07/18 03:22:29;;;;;;;8.68;5.80;;;20.40;78.10;;;;;;2458864;55;21843;-71
2021/07/18 03:24:55;;;;;;;6.93;5.03;;;20.40;77.80;;;;;;2239843;56;21042;-70
2021/07/18 03:27:21;;;;;;;8.45;5.45;;;20.40;77.90;;;;;;2240121;56;21015;-70
2021/07/18 03:29:48;;;;;;;8.05;5.30;;;20.40;77.70;;;;;;2239451;56;21104;-69
2021/07/18 03:32:18;;;;;;;7.90;5.40;;;20.30;77.50;;;;;;2239937;56;20970;-70
2021/07/18 03:34:45;;;;;;;7.47;5.12;;;20.30;77.30;;;;;;2239503;56;21495;-70
2021/07/18 03:37:12;;;;;;;8.30;6.07;;;20.20;77.20;;;;;;2245380;56;20954;-71
2021/07/18 03:39:39;;;;;;;7.35;5.65;;;20.30;77.20;;;;;;2235086;56;21009;-69
2021/07/18 03:42:05;;;;;;;9.20;5.05;;;20.20;77.20;;;;;;2239617;56;21039;-71
2021/07/18 03:44:32;;;;;;;8.82;5.32;;;20.20;77.20;;;;;;2239844;56;21042;-70
2021/07/18 03:46:58;;;;;;;8.55;4.85;;;20.10;77.10;;;;;;2239910;56;21081;-69
2021/07/18 03:49:25;;;;;;;7.12;5.43;;;20.10;78.00;;;;;;2239556;56;21061;-70
2021/07/18 03:51:52;;;;;;;8.75;6.90;;;20.10;77.40;;;;;;2243517;56;21482;-71
2021/07/18 03:54:20;;;;;;;8.00;6.28;;;20.00;77.50;;;;;;2239772;56;21098;-73
2021/07/18 03:56:47;;;;;;;7.28;5.57;;;20.00;77.70;;;;;;2458575;56;20993;-70
2021/07/18 03:59:16;;;;;;;8.10;5.70;;;20.00;77.80;;;;;;2239945;56;21859;-70
2021/07/18 04:01:42;;;;;;;7.18;5.00;;;19.90;77.70;;;;;;2284336;56;21486;-69
2021/07/18 04:04:09;;;;;;;7.55;4.87;;;19.90;77.70;;;;;;2244497;56;21023;-69
2021/07/18 04:06:35;;;;;;;7.80;5.03;;;19.90;77.70;;;;;;2395084;56;21110;-70
2021/07/18 04:09:02;;;;;;;9.88;5.75;;;19.90;77.80;;;;;;2380955;56;21002;-70
2021/07/18 04:11:29;;;;;;;7.47;5.60;;;19.90;77.90;;;;;;2239237;56;20958;-70
2021/07/18 04:13:55;;;;;;;7.35;5.70;;;19.90;78.00;;;;;;2239409;56;20990;-71
2021/07/18 04:16:21;;;;;;;8.85;5.62;;;19.90;78.30;;;;;;2298118;56;21014;-69
2021/07/18 04:18:48;;;;;;;8.95;6.22;;;19.90;78.40;;;;;;2239102;56;21011;-70
2021/07/18 04:21:19;;;;;;;8.13;6.15;;;19.90;78.40;;;;;;2463997;56;21013;-69
2021/07/18 04:23:48;;;;;;;8.43;5.78;;;19.80;78.40;;;;;;2463322;56;21037;-70
2021/07/18 04:26:14;;;;;;;7.60;4.62;;;19.80;78.30;;;;;;2243114;56;21042;-71
2021/07/18 04:28:41;;;;;;;8.07;5.60;;;19.80;78.50;;;;;;2236134;56;21006;-70
2021/07/18 04:31:07;;;;;;;8.07;5.75;;;19.90;78.70;;;;;;2259340;56;20962;-70
2021/07/18 04:33:34;;;;;;;8.68;5.53;;;19.80;78.70;;;;;;2240483;56;21025;-71
2021/07/18 04:36:01;;;;;;;8.02;5.40;;;19.80;78.80;;;;;;2237832;56;20990;-70
2021/07/18 04:38:30;;;;;;;8.90;6.12;;;19.90;79.00;;;;;;2241071;56;21502;-72
2021/07/18 04:40:56;;;;;;;6.43;4.50;;;19.90;79.10;;;;;;2349523;56;21419;-70
2021/07/18 04:43:22;;;;;;;7.70;5.47;;;19.90;79.20;;;;;;2239291;56;21078;-70
2021/07/18 04:45:48;;;;;;;8.38;5.40;;;19.90;79.20;;;;;;2270610;56;20986;-71
2021/07/18 04:48:17;;;;;;;10.10;5.95;;;19.90;79.20;;;;;;2241050;56;21381;-69
2021/07/18 04:50:45;;;;;;;7.45;5.78;;;19.90;79.30;;;;;;2237010;56;21030;-73
2021/07/18 04:53:13;;;;;;;8.82;5.78;;;19.90;79.40;;;;;;2220273;57;21491;-70
2021/07/18 04:55:43;;;;;;;7.55;5.60;;;19.90;79.60;;;;;;2234634;56;20950;-70
2021/07/18 04:58:10;;;;;;;8.63;5.40;;;19.90;79.70;;;;;;2238265;56;21942;-71
2021/07/18 05:00:37;;;;;;;7.80;5.22;;;20.00;79.80;;;;;;2238030;56;21014;-73
2021/07/18 05:03:03;;;;;;;9.00;5.97;;;20.00;79.90;;;;;;2240374;56;20971;-73
2021/07/18 05:05:29;;;;;;;11.45;6.10;;;20.00;80.00;;;;;;2310554;55;20982;-72
2021/07/18 05:07:59;;;;;;;8.57;5.97;;;20.10;80.10;;;;;;2356149;55;20934;-70
2021/07/18 05:10:25;;;;;;;8.20;5.65;;;20.10;80.10;;;;;;2398428;55;20970;-70
2021/07/18 05:12:53;;;;;;;8.27;5.90;;;20.10;80.10;;;;;;2362956;56;21477;-73
2021/07/18 05:15:22;;;;;;;8.13;5.20;;;20.10;80.10;;;;;;2410074;56;21415;-70
2021/07/18 05:17:49;;;;;;;9.27;5.35;;;20.20;80.30;;;;;;2239428;56;20961;-69
2021/07/18 05:20:16;;;;;;;8.68;5.22;;;20.20;80.40;;;;;;2240302;56;21023;-70
2021/07/18 05:22:42;;;;;;;8.27;5.75;;;20.20;80.50;;;;;;2240096;56;20962;-71
2021/07/18 05:25:12;;;;;;;7.90;5.57;;;20.20;80.60;;;;;;2239138;56;20981;-70
2021/07/18 05:27:38;;;;;;;8.13;5.72;;;20.30;80.70;;;;;;2239808;56;21031;-71
2021/07/18 05:30:07;;;;;;;7.50;6.03;;;20.30;80.70;;;;;;2357380;56;20968;-69
2021/07/18 05:32:36;;;;;;;7.60;5.80;;;20.40;80.80;;;;;;2239157;56;21013;-69
2021/07/18 05:35:04;;;;;;;7.25;4.93;;;20.40;80.80;;;;;;2239783;56;20947;-71
2021/07/18 05:37:31;;;;;;;7.95;5.80;;;20.50;80.90;;;;;;2238373;56;21645;-70
2021/07/18 05:39:57;;;;;;;7.53;5.62;;;20.50;81.00;;;;;;2267859;56;20966;-72
2021/07/18 05:42:24;;;;;;;8.77;5.82;;;20.50;80.90;;;;;;2459121;56;21022;-73
2021/07/18 05:44:50;;;;;;;7.97;5.28;;;20.60;80.90;;;;;;2286996;56;21022;-73
2021/07/18 05:47:17;;;;;;;6.07;4.37;;;20.60;80.80;;;;;;2310920;55;20986;-70
2021/07/18 05:49:44;;;;;;;8.85;5.70;;;20.60;80.80;;;;;;2235084;56;20962;-70
2021/07/18 05:52:19;;;;;;;8.30;5.40;;;20.70;80.90;;;;;;2237379;56;21021;-70
2021/07/18 05:54:48;;;;;;;8.07;5.18;;;20.70;80.50;;;;;;2215864;57;21982;-71
2021/07/18 05:57:14;;;;;;;7.57;4.97;;;20.80;81.00;;;;;;2237416;56;21033;-71
2021/07/18 05:59:44;;;;;;;7.57;5.05;;;20.80;80.80;;;;;;2342268;56;21106;-70
2021/07/18 06:02:10;;;;;;;7.22;5.12;;;20.90;80.50;;;;;;2239941;56;21122;-71
2021/07/18 06:04:36;;;;;;;7.45;5.68;;;20.90;80.60;;;;;;2254197;56;20947;-71
2021/07/18 06:07:04;;;;;;;8.50;5.85;;;20.90;80.50;;;;;;2234811;56;20967;-69
2021/07/18 06:09:31;;;;;;;7.87;5.28;;;20.90;80.50;;;;;;2237231;56;21019;-69
2021/07/18 06:11:58;;;;;;;6.10;4.47;;;21.00;80.50;;;;;;2242282;56;21310;-73
2021/07/18 06:14:24;;;;;;;6.82;4.72;;;21.00;80.50;;;;;;2457174;56;21074;-71
2021/07/18 06:16:50;;;;;;;7.07;4.87;;;21.00;80.40;;;;;;2237122;56;21010;-70
2021/07/18 06:19:17;;;;;;;7.32;4.82;;;21.00;80.40;;;;;;2238757;56;20983;-69
2021/07/18 06:21:43;;;;;;;7.78;5.00;;;21.10;80.40;;;;;;2235603;56;21003;-70
2021/07/18 06:24:10;;;;;;;7.78;5.25;;;21.10;80.40;;;;;;2257602;56;21504;-70
2021/07/18 06:26:39;;;;;;;7.32;5.07;;;21.10;80.50;;;;;;2245287;56;21353;-69
2021/07/18 06:29:07;;;;;;;7.37;4.93;;;21.10;80.40;;;;;;2336633;55;20990;-70
2021/07/18 06:31:33;;;;;;;7.28;4.82;;;21.20;80.60;;;;;;2241481;56;21001;-70
2021/07/18 06:34:00;;;;;;;7.57;5.03;;;21.20;80.80;;;;;;2247925;55;21000;-70
2021/07/18 06:36:26;;;;;;;7.07;4.75;;;21.20;80.80;;;;;;2237802;55;20997;-70
2021/07/18 06:38:52;;;;;;;7.15;4.43;;;21.30;81.00;;;;;;2234881;56;20990;-70
2021/07/18 06:41:19;;;;;;;8.95;4.95;;;21.30;81.10;;;;;;2240283;56;21013;-69
2021/07/18 06:43:45;;;;;;;6.60;4.60;;;21.40;81.40;;;;;;2239776;56;20970;-71
2021/07/18 06:46:24;;;;;;;8.63;4.50;;;21.40;81.40;;;;;;2239287;55;21020;-72
2021/07/18 06:48:51;;;;;;;7.28;4.65;;;21.50;81.50;;;;;;2249482;55;21095;-71
2021/07/18 06:51:17;;;;;;;7.82;4.55;;;21.60;81.70;;;;;;2395948;56;21001;-69
2021/07/18 06:53:44;;;;;;;7.82;5.12;;;21.60;81.80;;;;;;2355749;56;21467;-69
2021/07/18 06:56:31;;;;;;;7.12;4.07;;;21.70;82.00;;;;;;2240101;56;20990;-71
2021/07/18 06:58:58;;;;;;;5.57;3.60;;;21.80;81.20;;;;;;2334576;56;20970;-71
2021/07/18 07:01:25;;;;;;;6.10;3.22;;;21.80;82.00;;;;;;2238736;56;21094;-70
2021/07/18 07:03:51;;;;;;;4.65;2.97;;;21.90;82.10;;;;;;2262949;56;21776;-73
2021/07/18 07:06:18;;;;;;;6.40;3.30;;;22.00;82.20;;;;;;2238064;56;20982;-70
2021/07/18 07:08:44;;;;;;;4.70;2.55;;;22.10;82.50;;;;;;2237124;56;21861;-70
2021/07/18 07:11:14;;;;;;;5.50;2.97;;;22.20;82.70;;;;;;2241474;56;20966;-69
2021/07/18 07:13:42;;;;;;;4.68;3.00;;;22.30;82.30;;;;;;2456413;55;20968;-72
2021/07/18 07:16:08;;;;;;;5.10;3.00;;;22.40;83.00;;;;;;2243197;56;20962;-69
2021/07/18 07:18:35;;;;;;;4.68;2.50;;;22.40;83.10;;;;;;2237083;56;21873;-71
2021/07/18 07:21:02;;;;;;;3.80;2.25;;;22.60;83.30;;;;;;2237196;56;21113;-72
2021/07/18 07:23:28;;;;;;;5.60;2.58;;;22.70;83.00;;;;;;2238412;56;21018;-71
2021/07/18 07:25:55;;;;;;;4.20;2.37;;;22.80;83.10;;;;;;2239922;56;20966;-73
2021/07/18 07:28:21;;;;;;;4.15;2.03;;;22.90;82.80;;;;;;2239899;56;21021;-71
2021/07/18 07:30:49;;;;;;;4.75;2.20;;;23.00;82.60;;;;;;2237389;56;21026;-74
2021/07/18 07:33:15;;;;;;;3.37;1.95;;;23.10;82.20;;;;;;2340656;56;20982;-71
2021/07/18 07:35:42;;;;;;;3.62;1.70;;;23.10;82.20;;;;;;2241916;55;20986;-72
2021/07/18 07:38:08;;;;;;;4.18;2.12;;;23.20;82.20;;;;;;2230773;55;20974;-71
2021/07/18 07:40:35;;;;;;;3.67;2.00;;;23.30;82.10;;;;;;2220323;57;20971;-72
2021/07/18 07:43:02;;;;;;;4.37;1.92;;;23.40;81.90;;;;;;2291038;56;20942;-71
2021/07/18 07:45:31;;;;;;;3.70;1.92;;;23.40;81.60;;;;;;2241047;56;21531;-70
2021/07/18 07:47:57;;;;;;;4.25;1.45;;;23.50;81.40;;;;;;2293077;56;21586;-68
2021/07/18 07:50:24;;;;;;;3.53;1.70;;;23.50;81.00;;;;;;2349705;56;20969;-69
2021/07/18 07:52:50;;;;;;;3.00;1.70;;;23.60;80.60;;;;;;2299719;56;21047;-70
2021/07/18 07:55:17;;;;;;;4.68;2.17;;;23.60;80.20;;;;;;2237799;56;20958;-70
2021/07/18 07:57:43;;;;;;;2.78;1.35;;;23.60;80.00;;;;;;2256577;56;20986;-72
2021/07/18 08:00:12;;;;;;;4.60;1.70;;;23.60;80.10;;;;;;2236959;56;21074;-67
2021/07/18 08:02:38;;;;;;;4.40;1.80;;;23.60;80.20;;;;;;2241552;56;20990;-70
2021/07/18 08:05:07;;;;;;;4.05;1.62;;;23.70;80.50;;;;;;2234589;56;20942;-70
2021/07/18 08:07:34;;;;;;;3.85;1.45;;;23.80;80.50;;;;;;2381328;55;21750;-67
2021/07/18 08:10:00;;;;;;;2.85;1.42;;;23.80;80.80;;;;;;2238572;56;21472;-69
2021/07/18 08:12:27;;;;;;;2.62;1.50;;;23.90;81.00;;;;;;2239300;56;21005;-71
2021/07/18 08:14:59;;;;;;;3.53;1.60;;;23.90;81.20;;;;;;2239323;56;21001;-70
2021/07/18 08:17:25;;;;;;;2.97;1.30;;;24.00;80.60;;;;;;2265135;56;21862;-69
2021/07/18 08:19:52;;;;;;;3.37;1.58;;;24.10;80.90;;;;;;2248649;56;21502;-71
2021/07/18 08:22:19;;;;;;;3.40;1.60;;;24.10;80.50;;;;;;2431668;56;21026;-70
2021/07/18 08:24:46;;;;;;;3.60;1.55;;;24.20;80.30;;;;;;2275011;56;21098;-70
2021/07/18 08:27:12;;;;;;;4.35;1.55;;;24.20;80.00;;;;;;2236111;56;20958;-71
2021/07/18 08:29:39;;;;;;;5.35;1.30;;;24.20;79.90;;;;;;2218205;57;20974;-73
2021/07/18 08:32:06;;;;;;;2.70;1.40;;;24.20;80.00;;;;;;2245541;56;20922;-68
2021/07/18 08:34:33;;;;;;;2.62;1.30;;;24.30;80.00;;;;;;2243159;56;20999;-70
2021/07/18 08:37:03;;;;;;;3.53;1.55;;;24.40;80.00;;;;;;2279715;55;20985;-70
2021/07/18 08:39:30;;;;;;;2.72;1.30;;;24.40;79.30;;;;;;2238164;56;21085;-69
2021/07/18 08:41:56;;;;;;;3.62;1.52;;;24.40;79.70;;;;;;2390472;55;21876;-70
2021/07/18 08:44:23;;;;;;;3.12;1.42;;;24.50;79.80;;;;;;2239906;56;20974;-72
2021/07/18 08:46:49;;;;;;;4.43;1.48;;;24.50;79.90;;;;;;2236231;56;20982;-71
2021/07/18 08:49:15;;;;;;;3.95;1.52;;;24.60;80.00;;;;;;2462029;56;20951;-70
2021/07/18 08:51:42;;;;;;;2.78;1.50;;;24.60;79.80;;;;;;2240901;56;20934;-70
2021/07/18 08:54:09;;;;;;;7.20;1.65;;;24.70;79.60;;;;;;2288158;56;20959;-73
2021/07/18 08:56:36;;;;;;;3.50;1.33;;;24.70;79.40;;;;;;2459894;56;20974;-70
2021/07/18 08:59:10;;;;;;;3.83;1.67;;;24.70;79.60;;;;;;2241241;56;21010;-70
2021/07/18 09:01:42;;;;;;;2.50;1.25;;;24.80;78.80;;;;;;2342984;55;20955;-71
2021/07/18 09:04:10;;;;;;;2.75;1.50;;;24.90;79.60;;;;;;2238757;56;21479;-71
2021/07/18 09:06:55;;;;;;;3.33;1.50;;;25.00;80.70;;;;;;2250674;56;21049;-69
2021/07/18 09:09:22;;;;;;;3.30;1.55;;;25.10;78.40;;;;;;2274618;56;20999;-71
2021/07/18 09:12:05;;;;;;;4.22;1.60;;;25.20;80.50;;;;;;2237421;56;21002;-71
2021/07/18 09:14:33;;;;;;;2.97;1.33;;;25.30;78.50;;;;;;2237915;56;21014;-72
2021/07/18 09:17:00;;;;;;;2.92;1.40;;;25.30;79.90;;;;;;2237642;56;20997;-72
2021/07/18 09:19:29;;;;;;;3.28;1.50;;;25.40;80.00;;;;;;2238054;56;21488;-71
2021/07/18 09:22:09;;;;;;;3.70;2.17;;;25.50;80.30;;;;;;2236378;56;21038;-71
2021/07/18 09:24:47;;;;;;;3.70;2.30;;;25.60;78.90;;;;;;2237487;56;21028;-71
2021/07/18 09:27:24;;;;;;;4.53;2.00;;;25.70;80.30;;;;;;2237519;56;20992;-71
2021/07/18 09:29:54;;;;;;;4.30;1.77;;;25.80;78.90;;;;;;2240215;56;22080;-71
2021/07/18 09:32:27;;;;;;;5.90;1.80;;;25.90;79.90;;;;;;2238432;56;20938;-71
2021/07/18 09:35:02;;;;;;;5.45;1.58;;;25.90;78.30;;;;;;2235685;56;20942;-69
2021/07/18 09:37:31;;;;;;;2.95;1.27;;;26.00;78.00;;;;;;2263051;56;20942;-73
2021/07/18 09:40:30;;;;;;;3.03;1.90;;;26.00;79.10;;;;;;2237630;56;20934;-73
2021/07/18 09:43:01;;;;;;;4.18;1.83;;;26.10;76.60;;;;;;2241838;56;20978;-72
2021/07/18 09:45:30;;;;;;;3.42;1.50;;;26.10;78.80;;;;;;2233578;56;21851;-71
2021/07/18 09:48:00;;;;;;;2.58;1.30;;;26.20;78.50;;;;;;2239364;56;21078;-70
2021/07/18 09:50:28;;;;;;;2.72;1.50;;;26.20;77.70;;;;;;2242096;56;20906;-72
2021/07/18 09:53:15;;;;;;;3.05;1.60;;;26.20;78.00;;;;;;2233458;56;21038;-70
2021/07/18 09:56:31;;;;;;;3.42;1.67;;;26.20;76.00;;;;;;2237313;56;21703;-70
2021/07/18 09:58:57;;;;;;;3.30;1.42;;;26.30;76.10;;;;;;2237467;56;21014;-70
2021/07/18 10:01:24;;;;;;;4.00;1.65;;;26.30;78.10;;;;;;2242674;56;21019;-71
2021/07/18 10:03:55;;;;;;;3.55;1.60;;;26.30;78.00;;;;;;2238548;56;21300;-69
2021/07/18 10:06:24;;;;;;;3.83;1.50;;;26.30;77.10;;;;;;2239387;56;20986;-69
2021/07/18 10:08:52;;;;;;;4.18;1.60;;;26.30;77.10;;;;;;2297323;56;21022;-71
2021/07/18 10:11:20;;;;;;;2.92;1.50;;;26.40;77.50;;;;;;2245708;56;21041;-69
2021/07/18 10:13:47;;;;;;;3.85;1.50;;;26.40;77.20;;;;;;2235760;56;21814;-69
2021/07/18 10:16:14;;;;;;;4.47;1.40;;;26.40;77.70;;;;;;2239455;56;20991;-70
2021/07/18 10:18:43;;;;;;;2.55;1.42;;;26.40;77.00;;;;;;2322647;56;21078;-70
2021/07/18 10:21:18;;;;;;;2.75;1.40;;;26.40;76.60;;;;;;2240639;56;21054;-70
2021/07/18 10:23:45;;;;;;;3.08;1.52;;;26.40;76.70;;;;;;2233603;56;20972;-72
2021/07/18 10:26:20;;;;;;;5.85;2.15;;;26.50;76.80;;;;;;2234478;55;20978;-71
2021/07/18 10:28:47;;;;;;;3.97;2.15;;;26.50;76.20;;;;;;2296403;56;21887;-72
2021/07/18 10:31:24;;;;;;;5.18;1.62;;;26.50;77.00;;;;;;2239644;56;21535;-70
2021/07/18 10:33:51;;;;;;;3.53;1.50;;;26.60;75.90;;;;;;2237027;56;21888;-72
2021/07/18 10:36:19;;;;;;;3.00;1.20;;;26.60;76.90;;;;;;2240232;56;20975;-72
2021/07/18 10:38:46;;;;;;;2.80;1.17;;;26.70;76.80;;;;;;2235308;56;21003;-71
2021/07/18 10:41:13;;;;;;;3.35;1.23;;;26.70;77.20;;;;;;2237252;56;20954;-70
2021/07/18 10:43:47;;;;;;;3.40;1.35;;;26.70;77.30;;;;;;2240681;56;20975;-70
2021/07/18 10:46:15;;;;;;;3.40;1.30;;;26.80;76.30;;;;;;2298047;56;20995;-70
2021/07/18 10:48:55;;;;;;;2.37;1.20;;;26.90;77.40;;;;;;2239330;56;20974;-71
2021/07/18 10:51:36;;;;;;;4.35;1.40;;;27.00;76.00;;;;;;2275541;56;21831;-72
2021/07/18 10:54:13;;;;;;;3.17;1.55;;;27.00;75.80;;;;;;2240940;56;21010;-71
2021/07/18 10:56:46;;;;;;;2.83;1.33;;;27.10;75.90;;;;;;2237970;56;21020;-70
2021/07/18 10:59:32;;;;;;;4.22;1.55;;;27.10;76.30;;;;;;2233817;56;20973;-72
2021/07/18 11:02:22;;;;;;;2.28;1.23;;;27.20;74.80;;;;;;2240866;56;21433;-71
2021/07/18 11:04:52;;;;;;;3.58;1.52;;;27.30;75.60;;;;;;2239559;56;20954;-70
2021/07/18 11:07:36;;;;;;;3.58;1.52;;;27.30;75.90;;;;;;2235879;56;21019;-70
2021/07/18 11:10:14;;;;;;;3.60;1.40;;;27.30;74.50;;;;;;2220092;56;21807;-69
2021/07/18 11:12:45;;;;;;;3.95;1.35;;;27.40;75.20;;;;;;2458954;56;20997;-70
2021/07/18 11:15:46;;;;;;;3.00;1.35;;;27.50;76.10;;;;;;2237781;56;20978;-72
2021/07/18 11:18:18;;;;;;;3.25;1.65;;;27.60;74.50;;;;;;2237562;56;20962;-70
2021/07/18 11:20:54;;;;;;;;;;;27.60;75.30;;;;;;2320492;56;21018;-70
2021/07/18 11:23:33;;;;;;;2.90;1.52;;;27.70;75.80;;;;;;2391153;55;20083;-70
2021/07/18 11:26:18;;;;;;;3.12;1.45;;;27.70;75.80;;;;;;2286528;55;21725;-71
2021/07/18 11:28:51;;;;;;;2.78;1.33;;;27.70;74.00;;;;;;2238180;56;21960;-71
2021/07/18 11:31:23;;;;;;;2.45;1.12;;;27.70;76.50;;;;;;2460673;55;21129;-71
2021/07/18 11:34:07;;;;;;;3.10;1.58;;;27.80;75.70;;;;;;2238458;56;20955;-70
2021/07/18 11:36:54;;;;;;;3.37;1.33;;;27.90;74.30;;;;;;2261488;56;21510;-72
2021/07/18 11:39:22;;;;;;;2.97;1.33;;;27.90;74.00;;;;;;2236710;56;21052;-70
2021/07/18 11:41:48;;;;;;;4.87;1.67;;;28.00;76.10;;;;;;2310816;55;21496;-71
2021/07/18 11:44:16;;;;;;;3.75;1.58;;;28.00;76.30;;;;;;2237068;56;21022;-70
2021/07/18 11:46:44;;;;;;;4.22;2.00;;;28.10;76.10;;;;;;2316677;56;21847;-69
2021/07/18 11:49:16;;;;;;;3.47;1.80;;;28.10;75.80;;;;;;2237566;56;21013;-71
2021/07/18 11:51:43;;;;;;;;;;;28.20;75.80;;;;;;2271117;55;20973;-72
2021/07/18 11:54:09;;;;;;;3.37;1.30;;;28.20;74.60;;;;;;2239002;56;20656;-69
2021/07/18 11:56:38;;;;;;;3.45;1.40;;;28.30;76.30;;;;;;2235328;56;21550;-71
2021/07/18 11:59:12;;;;;;;8.18;1.67;;;28.30;75.70;;;;;;2238169;56;20966;-70
2021/07/18 12:01:40;;;;;;;3.50;1.30;;;28.40;73.80;;;;;;2216373;56;20989;-72
2021/07/18 12:04:07;;;;;;;3.45;1.50;;;28.40;75.10;;;;;;2237965;56;21026;-68
2021/07/18 12:06:33;;;;;;;3.35;1.55;;;28.40;75.20;;;;;;2267473;56;21669;-70
2021/07/18 12:09:10;;;;;;;3.62;1.50;;;28.50;75.20;;;;;;2243117;56;21101;-70
2021/07/18 12:11:38;;;;;;;3.25;1.40;;;28.50;74.80;;;;;;2432049;56;20950;-73
2021/07/18 12:14:05;;;;;;;4.50;1.90;;;28.60;74.70;;;;;;2237606;56;21766;-68
2021/07/18 12:16:32;;;;;;;2.80;1.58;;;28.60;74.40;;;;;;2237439;56;20962;-71
2021/07/18 12:18:59;;;;;;;3.85;1.45;;;28.60;74.00;;;;;;2237930;56;21080;-70
2021/07/18 12:21:26;;;;;;;3.20;1.50;;;28.60;73.90;;;;;;2250430;56;21034;-76
2021/07/18 12:24:47;;;;;;;3.10;1.45;;;28.70;73.90;;;;;;2238987;56;21038;-73
2021/07/18 12:27:28;;;;;;;4.68;1.60;;;28.70;71.50;;;;;;2237270;56;20998;-73
2021/07/18 12:29:56;;;;;;;3.95;1.70;;;28.80;72.40;;;;;;2238299;56;20978;-74
2021/07/18 12:32:26;;;;;;;3.58;1.58;;;28.80;74.20;;;;;;2263925;56;20990;-70
2021/07/18 12:34:54;;;;;;;3.75;1.70;;;28.80;73.30;;;;;;2258175;56;20990;-73
2021/07/18 12:37:32;;;;;;;3.05;1.37;;;28.80;74.00;;;;;;2235091;56;20966;-72
2021/07/18 12:40:03;;;;;;;4.00;1.58;;;28.90;74.00;;;;;;2280960;56;21022;-70
2021/07/18 12:42:35;;;;;;;3.95;1.45;;;29.00;73.10;;;;;;2358049;56;20966;-73
2021/07/18 12:45:37;;;;;;;3.87;1.55;;;29.00;72.70;;;;;;2298126;55;21018;-70
2021/07/18 12:48:04;;;;;;;2.72;1.10;;;29.10;71.20;;;;;;2245226;56;22487;-73
2021/07/18 12:50:34;;;;;;;3.30;1.20;;;29.10;73.90;;;;;;2453348;55;21763;-71
2021/07/18 12:53:03;;;;;;;5.15;1.33;;;29.10;73.70;;;;;;2249766;56;20990;-69
2021/07/18 12:55:53;;;;;;;2.90;1.50;;;29.10;73.20;;;;;;2233106;56;21781;-70
2021/07/18 12:58:32;;;;;;;3.92;1.50;;;29.20;73.00;;;;;;2315525;56;21021;-70